sensor_id;sensor_type;location;lat;lon;timestamp;pressure;altitude;pressure_sealevel;temperature;humidity
12785;BME280;6456;42.680;23.260;2023-02-18T00:00:56;95401.41;;;5.54;62.65
12785;BME280;6456;42.680;23.260;2023-02-18T00:03:23;95393.75;;;5.44;63.32
12785;BME280;6456;42.680;23.260;2023-02-18T00:05:52;95314.47;;;4.97;63.39
12785;BME280;6456;42.680;23.260;2023-02-18T00:08:20;95319.84;;;4.87;62.99
12785;BME280;6456;42.680;23.260;2023-02-18T00:10:47;95360.94;;;5.09;63.81
12785;BME280;6456;42.680;23.260;2023-02-18T00:13:14;95358.03;;;5.21;63.94
12785;BME280;6456;42.680;23.260;2023-02-18T00:15:41;95370.09;;;5.22;63.89
12785;BME280;6456;42.680;23.260;2023-02-18T00:18:08;95374.81;;;5.26;63.97
12785;BME280;6456;42.680;23.260;2023-02-18T00:20:37;95359.97;;;5.18;64.09
12785;BME280;6456;42.680;23.260;2023-02-18T00:23:06;95356.50;;;4.86;65.18
12785;BME280;6456;42.680;23.260;2023-02-18T00:25:33;95339.50;;;4.66;65.97
12785;BME280;6456;42.680;23.260;2023-02-18T00:28:00;95357.16;;;4.88;66.13
12785;BME280;6456;42.680;23.260;2023-02-18T00:30:27;95275.38;;;4.31;66.32
12785;BME280;6456;42.680;23.260;2023-02-18T00:32:54;95361.88;;;4.84;66.07
12785;BME280;6456;42.680;23.260;2023-02-18T00:35:21;95310.16;;;4.56;65.98
12785;BME280;6456;42.680;23.260;2023-02-18T00:37:50;95333.00;;;4.70;66.94
12785;BME280;6456;42.680;23.260;2023-02-18T00:40:19;95305.38;;;4.35;67.15
12785;BME280;6456;42.680;23.260;2023-02-18T00:42:46;95334.78;;;4.69;66.52
12785;BME280;6456;42.680;23.260;2023-02-18T00:45:13;95325.97;;;4.62;66.90
12785;BME280;6456;42.680;23.260;2023-02-18T00:47:40;95349.63;;;4.77;66.65
12785;BME280;6456;42.680;23.260;2023-02-18T00:50:08;95319.94;;;4.62;66.44
12785;BME280;6456;42.680;23.260;2023-02-18T00:52:35;95293.38;;;4.66;66.50
12785;BME280;6456;42.680;23.260;2023-02-18T00:55:03;95347.56;;;4.88;65.94
12785;BME280;6456;42.680;23.260;2023-02-18T00:57:31;95349.47;;;4.78;66.30
12785;BME280;6456;42.680;23.260;2023-02-18T00:59:58;95264.84;;;4.40;66.45
12785;BME280;6456;42.680;23.260;2023-02-18T01:02:24;95333.50;;;4.73;66.61
12785;BME280;6456;42.680;23.260;2023-02-18T01:04:51;95345.06;;;4.71;66.93
12785;BME280;6456;42.680;23.260;2023-02-18T01:07:18;95318.94;;;4.54;67.35
12785;BME280;6456;42.680;23.260;2023-02-18T01:09:45;95340.97;;;4.76;67.45
12785;BME280;6456;42.680;23.260;2023-02-18T01:12:12;95328.97;;;4.83;66.92
12785;BME280;6456;42.680;23.260;2023-02-18T01:14:41;95330.91;;;4.89;66.69
12785;BME280;6456;42.680;23.260;2023-02-18T01:17:08;95330.28;;;4.95;66.34
12785;BME280;6456;42.680;23.260;2023-02-18T01:19:35;95277.75;;;4.58;66.09
12785;BME280;6456;42.680;23.260;2023-02-18T01:22:02;95273.78;;;4.46;66.52
12785;BME280;6456;42.680;23.260;2023-02-18T01:24:31;95312.97;;;4.70;66.46
12785;BME280;6456;42.680;23.260;2023-02-18T01:26:58;95326.34;;;4.75;66.91
12785;BME280;6456;42.680;23.260;2023-02-18T01:29:25;95303.59;;;4.35;67.63
12785;BME280;6456;42.680;23.260;2023-02-18T01:31:53;95328.72;;;4.52;68.47
12785;BME280;6456;42.680;23.260;2023-02-18T01:34:20;95324.81;;;4.57;68.37
12785;BME280;6456;42.680;23.260;2023-02-18T01:36:46;95300.81;;;4.37;67.72
12785;BME280;6456;42.680;23.260;2023-02-18T01:39:13;95288.63;;;4.45;67.28
12785;BME280;6456;42.680;23.260;2023-02-18T01:41:40;95327.59;;;4.71;67.19
12785;BME280;6456;42.680;23.260;2023-02-18T01:44:15;95324.00;;;4.64;66.84
12785;BME280;6456;42.680;23.260;2023-02-18T01:46:42;95338.06;;;4.79;66.45
12785;BME280;6456;42.680;23.260;2023-02-18T01:49:16;95336.78;;;4.83;66.30
12785;BME280;6456;42.680;23.260;2023-02-18T01:51:46;95336.44;;;4.78;66.45
12785;BME280;6456;42.680;23.260;2023-02-18T01:54:17;95306.75;;;4.63;66.62
12785;BME280;6456;42.680;23.260;2023-02-18T01:56:47;95327.09;;;4.60;66.90
12785;BME280;6456;42.680;23.260;2023-02-18T01:59:18;95295.75;;;4.35;66.77
12785;BME280;6456;42.680;23.260;2023-02-18T02:01:47;95330.66;;;4.59;67.26
12785;BME280;6456;42.680;23.260;2023-02-18T02:04:15;95350.44;;;4.77;67.47
12785;BME280;6456;42.680;23.260;2023-02-18T02:06:42;95359.75;;;4.80;67.07
12785;BME280;6456;42.680;23.260;2023-02-18T02:09:12;95313.91;;;4.53;66.88
12785;BME280;6456;42.680;23.260;2023-02-18T02:11:54;95307.69;;;4.54;66.94
12785;BME280;6456;42.680;23.260;2023-02-18T02:14:39;95330.25;;;4.79;67.36
12785;BME280;6456;42.680;23.260;2023-02-18T02:17:16;95344.56;;;4.67;68.15
12785;BME280;6456;42.680;23.260;2023-02-18T02:20:19;95348.44;;;4.55;68.86
12785;BME280;6456;42.680;23.260;2023-02-18T02:23:26;95333.72;;;4.38;69.55
12785;BME280;6456;42.680;23.260;2023-02-18T02:26:25;95317.34;;;4.20;70.17
12785;BME280;6456;42.680;23.260;2023-02-18T02:29:16;95287.00;;;4.03;70.56
12785;BME280;6456;42.680;23.260;2023-02-18T02:32:06;95283.72;;;3.93;70.66
12785;BME280;6456;42.680;23.260;2023-02-18T02:34:44;95336.91;;;4.24;70.76
12785;BME280;6456;42.680;23.260;2023-02-18T02:37:15;95318.31;;;4.11;71.00
12785;BME280;6456;42.680;23.260;2023-02-18T02:39:58;95324.16;;;4.13;71.49
12785;BME280;6456;42.680;23.260;2023-02-18T02:42:34;95286.94;;;3.86;72.24
12785;BME280;6456;42.680;23.260;2023-02-18T02:45:05;95297.03;;;3.89;72.41
12785;BME280;6456;42.680;23.260;2023-02-18T02:47:40;95313.41;;;4.08;72.71
12785;BME280;6456;42.680;23.260;2023-02-18T02:50:16;95302.28;;;3.98;73.26
12785;BME280;6456;42.680;23.260;2023-02-18T02:52:49;95310.50;;;4.11;73.28
12785;BME280;6456;42.680;23.260;2023-02-18T02:55:18;95290.69;;;3.92;72.72
12785;BME280;6456;42.680;23.260;2023-02-18T02:57:47;95301.00;;;4.02;73.30
12785;BME280;6456;42.680;23.260;2023-02-18T03:00:16;95323.16;;;4.06;72.77
12785;BME280;6456;42.680;23.260;2023-02-18T03:03:13;95307.16;;;3.93;73.01
12785;BME280;6456;42.680;23.260;2023-02-18T03:05:54;95336.97;;;4.06;73.04
12785;BME280;6456;42.680;23.260;2023-02-18T03:08:39;95346.25;;;4.01;73.36
12785;BME280;6456;42.680;23.260;2023-02-18T03:11:08;95318.16;;;3.86;73.92
12785;BME280;6456;42.680;23.260;2023-02-18T03:13:48;95331.75;;;3.98;73.91
12785;BME280;6456;42.680;23.260;2023-02-18T03:16:25;95341.56;;;4.12;74.02
12785;BME280;6456;42.680;23.260;2023-02-18T03:19:01;95342.88;;;4.16;73.33
12785;BME280;6456;42.680;23.260;2023-02-18T03:21:36;95284.84;;;3.90;73.05
12785;BME280;6456;42.680;23.260;2023-02-18T03:24:07;95328.38;;;4.06;72.93
12785;BME280;6456;42.680;23.260;2023-02-18T03:26:39;95292.44;;;3.83;72.98
12785;BME280;6456;42.680;23.260;2023-02-18T03:29:09;95293.38;;;3.74;72.80
12785;BME280;6456;42.680;23.260;2023-02-18T03:31:40;95317.56;;;3.93;72.50
12785;BME280;6456;42.680;23.260;2023-02-18T03:34:17;95330.28;;;3.96;72.45
12785;BME280;6456;42.680;23.260;2023-02-18T03:36:48;95343.25;;;3.87;73.18
12785;BME280;6456;42.680;23.260;2023-02-18T03:39:17;95347.78;;;3.85;73.45
12785;BME280;6456;42.680;23.260;2023-02-18T03:41:45;95378.41;;;3.92;73.86
12785;BME280;6456;42.680;23.260;2023-02-18T03:44:12;95371.63;;;3.73;74.44
12785;BME280;6456;42.680;23.260;2023-02-18T03:46:43;95379.69;;;3.87;74.62
12785;BME280;6456;42.680;23.260;2023-02-18T03:49:11;95361.56;;;3.78;74.29
12785;BME280;6456;42.680;23.260;2023-02-18T03:51:38;95389.94;;;3.89;74.70
12785;BME280;6456;42.680;23.260;2023-02-18T03:54:07;95381.56;;;3.77;74.94
12785;BME280;6456;42.680;23.260;2023-02-18T03:56:34;95383.72;;;3.82;74.86
12785;BME280;6456;42.680;23.260;2023-02-18T03:59:02;95342.97;;;3.47;75.06
12785;BME280;6456;42.680;23.260;2023-02-18T04:01:29;95383.91;;;3.88;75.05
12785;BME280;6456;42.680;23.260;2023-02-18T04:03:56;95355.84;;;3.74;74.87
12785;BME280;6456;42.680;23.260;2023-02-18T04:06:23;95302.31;;;3.46;74.93
12785;BME280;6456;42.680;23.260;2023-02-18T04:08:52;95378.91;;;3.95;75.28
12785;BME280;6456;42.680;23.260;2023-02-18T04:11:20;95375.19;;;3.98;75.82
12785;BME280;6456;42.680;23.260;2023-02-18T04:13:47;95357.44;;;3.93;75.98
12785;BME280;6456;42.680;23.260;2023-02-18T04:16:14;95327.50;;;3.71;75.82
12785;BME280;6456;42.680;23.260;2023-02-18T04:18:41;95363.72;;;4.08;76.18
12785;BME280;6456;42.680;23.260;2023-02-18T04:21:10;95362.22;;;4.06;75.47
12785;BME280;6456;42.680;23.260;2023-02-18T04:23:37;95347.25;;;4.08;75.49
12785;BME280;6456;42.680;23.260;2023-02-18T04:26:04;95315.91;;;3.92;75.35
12785;BME280;6456;42.680;23.260;2023-02-18T04:28:34;95351.81;;;4.14;75.28
12785;BME280;6456;42.680;23.260;2023-02-18T04:31:01;95297.97;;;3.80;74.89
12785;BME280;6456;42.680;23.260;2023-02-18T04:33:28;95336.97;;;4.06;74.84
12785;BME280;6456;42.680;23.260;2023-02-18T04:35:55;95334.25;;;4.08;74.66
12785;BME280;6456;42.680;23.260;2023-02-18T04:38:24;95277.16;;;3.55;74.68
12785;BME280;6456;42.680;23.260;2023-02-18T04:40:53;95331.53;;;3.92;75.04
12785;BME280;6456;42.680;23.260;2023-02-18T04:43:20;95329.22;;;3.80;75.33
12785;BME280;6456;42.680;23.260;2023-02-18T04:45:49;95333.72;;;3.70;75.92
12785;BME280;6456;42.680;23.260;2023-02-18T04:48:16;95316.31;;;3.53;76.39
12785;BME280;6456;42.680;23.260;2023-02-18T04:50:43;95303.41;;;3.44;75.90
12785;BME280;6456;42.680;23.260;2023-02-18T04:53:10;95246.97;;;3.10;76.43
12785;BME280;6456;42.680;23.260;2023-02-18T04:55:37;95330.69;;;3.57;75.99
12785;BME280;6456;42.680;23.260;2023-02-18T04:58:03;95352.59;;;3.72;76.26
12785;BME280;6456;42.680;23.260;2023-02-18T05:00:33;95351.34;;;3.84;75.78
12785;BME280;6456;42.680;23.260;2023-02-18T05:03:01;95372.78;;;3.78;76.29
12785;BME280;6456;42.680;23.260;2023-02-18T05:05:28;95319.19;;;3.42;76.15
12785;BME280;6456;42.680;23.260;2023-02-18T05:07:55;95394.66;;;3.85;76.06
12785;BME280;6456;42.680;23.260;2023-02-18T05:10:22;95387.34;;;3.89;75.76
12785;BME280;6456;42.680;23.260;2023-02-18T05:12:49;95373.75;;;3.77;75.74
12785;BME280;6456;42.680;23.260;2023-02-18T05:15:16;95394.84;;;3.92;75.83
12785;BME280;6456;42.680;23.260;2023-02-18T05:17:45;95375.19;;;3.98;75.80
12785;BME280;6456;42.680;23.260;2023-02-18T05:20:14;95369.22;;;4.05;75.41
12785;BME280;6456;42.680;23.260;2023-02-18T05:22:41;95308.03;;;3.75;75.02
12785;BME280;6456;42.680;23.260;2023-02-18T05:25:07;95368.75;;;4.10;75.32
12785;BME280;6456;42.680;23.260;2023-02-18T05:27:34;95371.56;;;3.91;75.80
12785;BME280;6456;42.680;23.260;2023-02-18T05:30:01;95343.47;;;3.76;75.82
12785;BME280;6456;42.680;23.260;2023-02-18T05:32:28;95364.19;;;3.86;76.00
12785;BME280;6456;42.680;23.260;2023-02-18T05:34:55;95350.47;;;4.02;76.08
12785;BME280;6456;42.680;23.260;2023-02-18T05:37:23;95340.72;;;4.04;76.28
12785;BME280;6456;42.680;23.260;2023-02-18T05:39:50;95360.00;;;4.19;75.15
12785;BME280;6456;42.680;23.260;2023-02-18T05:42:16;95361.63;;;4.20;75.34
12785;BME280;6456;42.680;23.260;2023-02-18T05:44:43;95354.34;;;4.23;74.66
12785;BME280;6456;42.680;23.260;2023-02-18T05:47:11;95363.94;;;4.23;74.88
12785;BME280;6456;42.680;23.260;2023-02-18T05:49:39;95352.16;;;4.11;74.79
12785;BME280;6456;42.680;23.260;2023-02-18T05:52:07;95347.31;;;4.24;74.75
12785;BME280;6456;42.680;23.260;2023-02-18T05:54:36;95349.28;;;4.22;74.27
12785;BME280;6456;42.680;23.260;2023-02-18T05:57:03;95385.47;;;4.33;73.73
12785;BME280;6456;42.680;23.260;2023-02-18T05:59:30;95379.34;;;4.16;74.50
12785;BME280;6456;42.680;23.260;2023-02-18T06:01:57;95394.50;;;4.13;75.16
12785;BME280;6456;42.680;23.260;2023-02-18T06:04:25;95385.50;;;4.07;75.18
12785;BME280;6456;42.680;23.260;2023-02-18T06:06:52;95393.59;;;4.30;75.14
12785;BME280;6456;42.680;23.260;2023-02-18T06:09:19;95371.31;;;4.35;74.51
12785;BME280;6456;42.680;23.260;2023-02-18T06:11:47;95383.94;;;4.56;74.15
12785;BME280;6456;42.680;23.260;2023-02-18T06:14:14;95335.19;;;4.40;73.96
12785;BME280;6456;42.680;23.260;2023-02-18T06:16:40;95315.63;;;4.28;73.62
12785;BME280;6456;42.680;23.260;2023-02-18T06:19:07;95383.03;;;4.81;73.09
12785;BME280;6456;42.680;23.260;2023-02-18T06:21:34;95320.34;;;4.41;73.22
12785;BME280;6456;42.680;23.260;2023-02-18T06:24:01;95366.03;;;4.61;73.43
12785;BME280;6456;42.680;23.260;2023-02-18T06:26:28;95380.78;;;4.86;73.35
12785;BME280;6456;42.680;23.260;2023-02-18T06:28:56;95297.59;;;4.51;73.50
12785;BME280;6456;42.680;23.260;2023-02-18T06:31:23;95363.22;;;5.04;72.81
12785;BME280;6456;42.680;23.260;2023-02-18T06:33:50;95288.19;;;4.58;72.28
12785;BME280;6456;42.680;23.260;2023-02-18T06:36:17;95239.25;;;4.28;71.73
12785;BME280;6456;42.680;23.260;2023-02-18T06:38:44;95359.97;;;5.18;71.95
12785;BME280;6456;42.680;23.260;2023-02-18T06:41:12;95242.19;;;4.41;71.87
12785;BME280;6456;42.680;23.260;2023-02-18T06:43:39;95368.13;;;5.32;71.33
12785;BME280;6456;42.680;23.260;2023-02-18T06:46:08;95376.78;;;5.32;71.17
12785;BME280;6456;42.680;23.260;2023-02-18T06:48:35;95299.47;;;4.91;71.22
12785;BME280;6456;42.680;23.260;2023-02-18T06:51:03;95302.25;;;5.05;71.18
12785;BME280;6456;42.680;23.260;2023-02-18T06:53:30;95292.28;;;5.09;71.51
12785;BME280;6456;42.680;23.260;2023-02-18T06:55:57;95300.13;;;5.09;70.50
12785;BME280;6456;42.680;23.260;2023-02-18T06:58:24;95327.84;;;5.50;69.79
12785;BME280;6456;42.680;23.260;2023-02-18T07:00:51;95279.72;;;5.29;73.02
12785;BME280;6456;42.680;23.260;2023-02-18T07:03:19;95266.53;;;5.22;72.01
12785;BME280;6456;42.680;23.260;2023-02-18T07:05:46;95338.63;;;5.55;69.60
12785;BME280;6456;42.680;23.260;2023-02-18T07:08:13;95380.56;;;5.86;70.18
12785;BME280;6456;42.680;23.260;2023-02-18T07:10:40;95365.88;;;5.93;70.35
12785;BME280;6456;42.680;23.260;2023-02-18T07:13:07;95357.03;;;5.94;69.41
12785;BME280;6456;42.680;23.260;2023-02-18T07:15:34;95366.16;;;6.06;69.48
12785;BME280;6456;42.680;23.260;2023-02-18T07:18:00;95297.47;;;5.73;67.86
12785;BME280;6456;42.680;23.260;2023-02-18T07:20:29;95308.72;;;5.90;66.25
12785;BME280;6456;42.680;23.260;2023-02-18T07:22:56;95331.38;;;6.06;66.18
12785;BME280;6456;42.680;23.260;2023-02-18T07:25:23;95283.13;;;5.86;66.92
12785;BME280;6456;42.680;23.260;2023-02-18T07:27:50;95340.00;;;6.14;65.64
12785;BME280;6456;42.680;23.260;2023-02-18T07:30:19;95314.69;;;6.15;65.84
12785;BME280;6456;42.680;23.260;2023-02-18T07:32:46;95336.25;;;6.17;65.92
12785;BME280;6456;42.680;23.260;2023-02-18T07:35:14;95355.69;;;6.06;66.27
12785;BME280;6456;42.680;23.260;2023-02-18T07:37:45;95360.25;;;6.28;65.87
12785;BME280;6456;42.680;23.260;2023-02-18T07:40:13;95346.38;;;6.12;65.59
12785;BME280;6456;42.680;23.260;2023-02-18T07:42:40;95370.00;;;6.34;64.32
12785;BME280;6456;42.680;23.260;2023-02-18T07:45:08;95385.63;;;6.59;63.74
12785;BME280;6456;42.680;23.260;2023-02-18T07:47:35;95354.72;;;6.54;62.26
12785;BME280;6456;42.680;23.260;2023-02-18T07:50:03;95377.06;;;6.73;62.13
12785;BME280;6456;42.680;23.260;2023-02-18T07:52:30;95394.88;;;7.08;61.56
12785;BME280;6456;42.680;23.260;2023-02-18T07:54:58;95387.56;;;7.26;60.87
12785;BME280;6456;42.680;23.260;2023-02-18T07:57:25;95361.19;;;7.28;60.96
12785;BME280;6456;42.680;23.260;2023-02-18T07:59:52;95381.56;;;7.63;59.82
12785;BME280;6456;42.680;23.260;2023-02-18T08:02:21;95285.00;;;7.23;59.56
12785;BME280;6456;42.680;23.260;2023-02-18T08:04:48;95360.13;;;7.97;59.38
12785;BME280;6456;42.680;23.260;2023-02-18T08:07:17;95358.25;;;8.05;58.68
12785;BME280;6456;42.680;23.260;2023-02-18T08:09:46;95374.06;;;8.12;57.93
12785;BME280;6456;42.680;23.260;2023-02-18T08:12:14;95327.88;;;7.96;57.71
12785;BME280;6456;42.680;23.260;2023-02-18T08:14:41;95375.41;;;8.45;56.68
12785;BME280;6456;42.680;23.260;2023-02-18T08:17:08;95368.16;;;8.47;55.78
12785;BME280;6456;42.680;23.260;2023-02-18T08:19:35;95350.00;;;8.31;55.88
12785;BME280;6456;42.680;23.260;2023-02-18T08:22:02;95358.66;;;8.61;55.39
12785;BME280;6456;42.680;23.260;2023-02-18T08:24:29;95353.03;;;8.78;54.75
12785;BME280;6456;42.680;23.260;2023-02-18T08:26:56;95335.75;;;8.84;54.17
12785;BME280;6456;42.680;23.260;2023-02-18T08:29:24;95335.97;;;9.03;53.65
12785;BME280;6456;42.680;23.260;2023-02-18T08:31:51;95334.59;;;9.08;53.41
12785;BME280;6456;42.680;23.260;2023-02-18T08:34:19;95322.38;;;9.00;53.32
12785;BME280;6456;42.680;23.260;2023-02-18T08:36:46;95337.72;;;8.96;52.78
12785;BME280;6456;42.680;23.260;2023-02-18T08:39:13;95310.16;;;8.71;53.36
12785;BME280;6456;42.680;23.260;2023-02-18T08:41:39;95341.44;;;8.87;53.25
12785;BME280;6456;42.680;23.260;2023-02-18T08:44:06;95326.66;;;9.01;53.14
12785;BME280;6456;42.680;23.260;2023-02-18T08:46:34;95326.09;;;9.06;52.94
12785;BME280;6456;42.680;23.260;2023-02-18T08:49:02;95311.97;;;9.07;52.88
12785;BME280;6456;42.680;23.260;2023-02-18T08:51:29;95335.25;;;9.31;53.64
12785;BME280;6456;42.680;23.260;2023-02-18T08:53:56;95339.97;;;9.21;52.99
12785;BME280;6456;42.680;23.260;2023-02-18T08:56:23;95339.41;;;9.25;52.95
12785;BME280;6456;42.680;23.260;2023-02-18T08:58:50;95346.97;;;9.35;53.20
12785;BME280;6456;42.680;23.260;2023-02-18T09:01:17;95345.06;;;9.43;53.23
12785;BME280;6456;42.680;23.260;2023-02-18T09:03:47;95347.81;;;9.56;53.19
12785;BME280;6456;42.680;23.260;2023-02-18T09:06:14;95348.00;;;9.76;52.81
12785;BME280;6456;42.680;23.260;2023-02-18T09:08:40;95332.84;;;9.78;52.70
12785;BME280;6456;42.680;23.260;2023-02-18T09:11:07;95339.78;;;9.86;52.66
12785;BME280;6456;42.680;23.260;2023-02-18T09:13:35;95351.69;;;10.09;52.75
12785;BME280;6456;42.680;23.260;2023-02-18T09:16:04;95342.47;;;10.20;52.28
12785;BME280;6456;42.680;23.260;2023-02-18T09:18:31;95346.50;;;10.16;52.32
12785;BME280;6456;42.680;23.260;2023-02-18T09:21:01;95347.78;;;10.26;52.51
12785;BME280;6456;42.680;23.260;2023-02-18T09:23:30;95356.31;;;10.35;52.24
12785;BME280;6456;42.680;23.260;2023-02-18T09:25:58;95321.09;;;10.29;52.08
12785;BME280;6456;42.680;23.260;2023-02-18T09:28:25;95337.03;;;10.56;51.63
12785;BME280;6456;42.680;23.260;2023-02-18T09:30:52;95310.09;;;10.54;51.41
12785;BME280;6456;42.680;23.260;2023-02-18T09:33:19;95303.63;;;10.56;50.31
12785;BME280;6456;42.680;23.260;2023-02-18T09:35:46;95262.88;;;10.39;49.83
12785;BME280;6456;42.680;23.260;2023-02-18T09:38:15;95305.13;;;10.78;48.78
12785;BME280;6456;42.680;23.260;2023-02-18T09:40:45;95280.41;;;10.66;48.58
12785;BME280;6456;42.680;23.260;2023-02-18T09:43:21;95301.38;;;11.01;48.43
12785;BME280;6456;42.680;23.260;2023-02-18T09:45:50;95318.41;;;11.18;47.71
12785;BME280;6456;42.680;23.260;2023-02-18T09:48:19;95306.25;;;11.10;48.40
12785;BME280;6456;42.680;23.260;2023-02-18T09:50:51;95311.34;;;11.18;46.89
12785;BME280;6456;42.680;23.260;2023-02-18T09:53:21;95297.16;;;11.19;47.28
12785;BME280;6456;42.680;23.260;2023-02-18T09:55:48;95282.78;;;11.28;47.71
12785;BME280;6456;42.680;23.260;2023-02-18T09:58:23;95306.72;;;11.53;46.64
12785;BME280;6456;42.680;23.260;2023-02-18T10:00:53;95294.78;;;11.64;46.27
12785;BME280;6456;42.680;23.260;2023-02-18T10:03:24;95286.50;;;11.80;44.87
12785;BME280;6456;42.680;23.260;2023-02-18T10:05:56;95287.91;;;12.02;44.62
12785;BME280;6456;42.680;23.260;2023-02-18T10:08:28;95274.06;;;12.13;43.22
12785;BME280;6456;42.680;23.260;2023-02-18T10:10:56;95263.88;;;12.36;42.93
12785;BME280;6456;42.680;23.260;2023-02-18T10:13:26;95261.97;;;12.56;42.50
12785;BME280;6456;42.680;23.260;2023-02-18T10:15:54;95275.09;;;12.82;41.46
12785;BME280;6456;42.680;23.260;2023-02-18T10:18:26;95273.97;;;13.10;40.93
12785;BME280;6456;42.680;23.260;2023-02-18T10:20:59;95268.84;;;13.15;40.41
12785;BME280;6456;42.680;23.260;2023-02-18T10:23:30;95186.56;;;12.73;39.69
12785;BME280;6456;42.680;23.260;2023-02-18T10:26:00;95275.16;;;13.45;39.69
12785;BME280;6456;42.680;23.260;2023-02-18T10:28:28;95262.22;;;13.62;40.26
12785;BME280;6456;42.680;23.260;2023-02-18T10:31:01;95269.94;;;13.88;40.27
12785;BME280;6456;42.680;23.260;2023-02-18T10:33:33;95254.00;;;13.94;38.79
12785;BME280;6456;42.680;23.260;2023-02-18T10:36:16;95261.34;;;14.17;38.21
12785;BME280;6456;42.680;23.260;2023-02-18T10:42:06;95253.22;;;14.55;35.79
12785;BME280;6456;42.680;23.260;2023-02-18T10:44:43;95230.34;;;14.60;35.15
12785;BME280;6456;42.680;23.260;2023-02-18T10:47:18;95239.91;;;14.91;34.76
12785;BME280;6456;42.680;23.260;2023-02-18T10:49:56;95242.34;;;15.22;34.86
12785;BME280;6456;42.680;23.260;2023-02-18T10:52:26;95176.63;;;15.13;33.88
12785;BME280;6456;42.680;23.260;2023-02-18T10:55:00;95222.97;;;15.63;31.95
12785;BME280;6456;42.680;23.260;2023-02-18T10:57:29;95233.75;;;15.80;31.18
12785;BME280;6456;42.680;23.260;2023-02-18T11:00:00;95222.44;;;15.73;30.96
12785;BME280;6456;42.680;23.260;2023-02-18T11:02:35;95224.97;;;15.79;30.64
12785;BME280;6456;42.680;23.260;2023-02-18T11:05:15;95182.63;;;15.50;29.04
12785;BME280;6456;42.680;23.260;2023-02-18T11:07:46;95217.81;;;15.80;28.86
12785;BME280;6456;42.680;23.260;2023-02-18T11:10:17;95197.72;;;15.61;29.34
12785;BME280;6456;42.680;23.260;2023-02-18T11:12:49;95188.16;;;15.48;29.78
12785;BME280;6456;42.680;23.260;2023-02-18T11:15:20;95208.56;;;15.71;29.14
12785;BME280;6456;42.680;23.260;2023-02-18T11:17:49;95191.13;;;15.63;28.82
12785;BME280;6456;42.680;23.260;2023-02-18T11:20:26;95200.72;;;15.76;28.72
12785;BME280;6456;42.680;23.260;2023-02-18T11:22:58;95191.97;;;15.75;28.39
12785;BME280;6456;42.680;23.260;2023-02-18T11:25:29;95194.16;;;15.78;28.50
12785;BME280;6456;42.680;23.260;2023-02-18T11:28:00;95186.88;;;15.74;28.66
12785;BME280;6456;42.680;23.260;2023-02-18T11:30:32;95185.97;;;15.80;28.50
12785;BME280;6456;42.680;23.260;2023-02-18T11:33:05;95173.16;;;15.77;27.96
12785;BME280;6456;42.680;23.260;2023-02-18T11:35:33;95171.19;;;15.84;27.56
12785;BME280;6456;42.680;23.260;2023-02-18T11:38:02;95146.06;;;15.75;27.93
12785;BME280;6456;42.680;23.260;2023-02-18T11:40:40;95128.88;;;15.66;28.18
12785;BME280;6456;42.680;23.260;2023-02-18T11:43:12;95165.44;;;15.87;28.10
12785;BME280;6456;42.680;23.260;2023-02-18T11:45:40;95182.03;;;15.94;28.03
12785;BME280;6456;42.680;23.260;2023-02-18T11:48:14;95134.06;;;15.72;28.13
12785;BME280;6456;42.680;23.260;2023-02-18T11:50:42;95169.34;;;15.96;28.23
12785;BME280;6456;42.680;23.260;2023-02-18T11:53:31;95149.75;;;15.97;29.31
12785;BME280;6456;42.680;23.260;2023-02-18T11:56:03;95119.19;;;15.83;28.21
12785;BME280;6456;42.680;23.260;2023-02-18T11:58:37;95128.16;;;15.93;28.71
12785;BME280;6456;42.680;23.260;2023-02-18T12:01:11;95093.53;;;15.88;28.74
12785;BME280;6456;42.680;23.260;2023-02-18T12:03:41;95140.22;;;16.24;28.83
12785;BME280;6456;42.680;23.260;2023-02-18T12:06:13;95123.06;;;16.43;28.98
12785;BME280;6456;42.680;23.260;2023-02-18T12:08:47;95118.88;;;16.59;27.82
12785;BME280;6456;42.680;23.260;2023-02-18T12:11:23;95075.25;;;16.43;28.59
12785;BME280;6456;42.680;23.260;2023-02-18T12:13:54;95114.13;;;16.89;28.21
12785;BME280;6456;42.680;23.260;2023-02-18T12:16:28;95129.69;;;16.97;28.12
12785;BME280;6456;42.680;23.260;2023-02-18T12:19:25;95113.28;;;17.00;27.93
12785;BME280;6456;42.680;23.260;2023-02-18T12:22:05;95103.97;;;16.86;28.11
12785;BME280;6456;42.680;23.260;2023-02-18T12:24:48;95083.91;;;16.79;27.98
12785;BME280;6456;42.680;23.260;2023-02-18T12:27:25;95115.09;;;16.83;29.05
12785;BME280;6456;42.680;23.260;2023-02-18T12:30:21;95115.97;;;16.89;28.30
12785;BME280;6456;42.680;23.260;2023-02-18T12:32:58;95055.22;;;16.64;28.84
12785;BME280;6456;42.680;23.260;2023-02-18T12:35:39;95099.91;;;16.95;28.24
12785;BME280;6456;42.680;23.260;2023-02-18T12:38:32;95063.06;;;16.71;28.87
12785;BME280;6456;42.680;23.260;2023-02-18T12:41:26;95088.63;;;16.88;28.89
12785;BME280;6456;42.680;23.260;2023-02-18T12:44:07;95085.22;;;16.93;28.98
12785;BME280;6456;42.680;23.260;2023-02-18T12:46:50;95063.72;;;16.78;29.27
12785;BME280;6456;42.680;23.260;2023-02-18T12:52:25;95072.16;;;16.75;29.16
12785;BME280;6456;42.680;23.260;2023-02-18T12:55:20;95053.47;;;16.70;29.30
12785;BME280;6456;42.680;23.260;2023-02-18T12:58:00;95079.28;;;16.86;29.41
12785;BME280;6456;42.680;23.260;2023-02-18T13:01:03;95009.66;;;16.44;29.69
12785;BME280;6456;42.680;23.260;2023-02-18T13:03:52;95023.91;;;16.66;29.32
12785;BME280;6456;42.680;23.260;2023-02-18T13:09:23;95074.38;;;17.11;29.11
12785;BME280;6456;42.680;23.260;2023-02-18T13:11:59;95052.50;;;17.09;28.84
12785;BME280;6456;42.680;23.260;2023-02-18T13:14:29;94996.53;;;16.82;28.77
12785;BME280;6456;42.680;23.260;2023-02-18T13:17:00;95024.19;;;16.98;28.60
12785;BME280;6456;42.680;23.260;2023-02-18T13:19:31;95062.44;;;17.30;29.38
12785;BME280;6456;42.680;23.260;2023-02-18T13:22:02;95073.78;;;17.42;28.38
12785;BME280;6456;42.680;23.260;2023-02-18T13:24:32;95075.25;;;17.33;29.01
12785;BME280;6456;42.680;23.260;2023-02-18T13:27:06;95053.97;;;17.16;28.92
12785;BME280;6456;42.680;23.260;2023-02-18T13:29:40;95078.31;;;17.25;29.09
12785;BME280;6456;42.680;23.260;2023-02-18T13:32:16;95081.44;;;17.22;29.43
12785;BME280;6456;42.680;23.260;2023-02-18T13:34:54;95074.13;;;16.96;29.67